createdAt,value
2017-08-28T00:00:08.529Z,71.44
2017-08-28T00:00:18.241Z,71.28
2017-08-28T00:00:27.985Z,71.71
2017-08-28T00:00:37.745Z,71.71
2017-08-28T00:00:47.470Z,71.56
2017-08-28T00:00:57.204Z,71.78
2017-08-28T00:01:12.153Z,71.88
2017-08-28T00:01:20.889Z,71.68
2017-08-28T00:01:30.655Z,71.83
2017-08-28T00:01:40.453Z,71.65
2017-08-28T00:01:50.109Z,71.69
2017-08-28T00:01:59.845Z,71.73
2017-08-28T00:02:09.581Z,71.59
2017-08-28T00:02:19.332Z,72.03
2017-08-28T00:02:29.048Z,72.01
2017-08-28T00:02:38.800Z,72.10
2017-08-28T00:02:48.552Z,72.09
2017-08-28T00:02:58.311Z,71.88
2017-08-28T00:03:08.009Z,71.96
2017-08-28T00:03:57.778Z,71.66
2017-08-28T00:04:19.116Z,71.30
2017-08-28T01:27:10.960Z,71.58
2017-08-28T01:27:44.908Z,70.62
2017-08-28T01:27:59.437Z,70.68
2017-08-28T01:28:50.786Z,70.59
2017-08-28T01:29:01.552Z,70.63
2017-08-28T01:29:11.272Z,70.58
2017-08-28T01:29:26.225Z,70.73
2017-08-28T01:29:39.789Z,70.59
2017-08-28T01:29:49.541Z,70.72
2017-08-28T01:30:05.645Z,70.54
2017-08-28T01:30:15.412Z,70.77
2017-08-28T01:30:25.138Z,70.65
2017-08-28T01:30:40.084Z,70.57
2017-08-28T01:30:48.853Z,70.57
2017-08-28T01:30:58.585Z,70.94
2017-08-28T01:31:13.799Z,71.02
2017-08-28T01:31:23.981Z,70.89
2017-08-28T01:32:07.325Z,70.83
2017-08-28T01:32:26.669Z,71.05
2017-08-28T01:32:36.397Z,70.71
2017-08-28T01:33:42.510Z,70.86
2017-08-28T01:34:14.153Z,71.01
2017-08-28T01:34:23.885Z,70.71
2017-08-28T01:34:33.638Z,70.52
2017-08-28T01:34:49.764Z,70.54
2017-08-28T01:35:02.716Z,70.77
2017-08-28T01:35:35.869Z,70.93
2017-08-28T01:35:45.580Z,70.64
2017-08-28T01:35:55.360Z,70.79
2017-08-28T01:36:06.681Z,70.64
2017-08-28T01:36:16.418Z,70.89
2017-08-28T01:36:32.552Z,71.08
2017-08-28T01:36:42.293Z,70.77
2017-08-28T01:36:53.629Z,71.23
2017-08-28T01:37:06.596Z,70.86
2017-08-28T01:37:16.301Z,71.18
2017-08-28T01:37:27.638Z,70.81
2017-08-28T01:37:37.380Z,70.73
2017-08-28T01:37:47.106Z,71.03
2017-08-28T01:37:56.849Z,70.89
2017-08-28T01:38:11.800Z,71.15
2017-08-28T01:38:46.161Z,71.21
2017-08-28T01:39:54.305Z,70.86
2017-08-28T01:40:03.093Z,70.98
2017-08-28T01:40:12.836Z,71.28
2017-08-28T01:40:22.570Z,70.92
2017-08-28T01:40:32.305Z,71.01
2017-08-28T01:40:42.049Z,70.95
2017-08-28T01:40:51.798Z,70.77
2017-08-28T01:41:01.542Z,70.87
2017-08-28T01:41:27.417Z,70.89
2017-08-28T01:41:37.145Z,70.87
2017-08-28T01:41:46.892Z,70.81
2017-08-28T01:42:00.316Z,71.13
2017-08-28T01:42:12.221Z,71.14
2017-08-28T01:43:18.224Z,70.81
2017-08-28T01:43:32.339Z,70.86
2017-08-28T01:43:50.066Z,70.81
2017-08-28T01:43:59.800Z,70.74
2017-08-28T01:44:09.533Z,71.17
2017-08-28T01:44:19.272Z,71.01
2017-08-28T01:44:29.011Z,70.91
2017-08-28T01:44:38.753Z,70.69
2017-08-28T01:44:48.485Z,71.25
2017-08-28T01:45:03.420Z,71.27
2017-08-28T01:45:12.172Z,70.64
2017-08-28T01:45:28.142Z,71.13
2017-08-28T01:45:37.493Z,71.06
2017-08-28T01:45:47.221Z,71.28
2017-08-28T01:45:56.987Z,71.34
2017-08-28T01:46:06.737Z,70.97
2017-08-28T01:46:16.444Z,71.19
2017-08-28T01:46:26.293Z,70.59
2017-08-28T01:46:35.922Z,71.15
2017-08-28T01:46:45.669Z,71.15
2017-08-28T01:46:55.404Z,71.16
2017-08-28T01:47:10.333Z,71.28
2017-08-28T01:47:19.081Z,71.35
2017-08-28T01:47:28.824Z,71.40
2017-08-28T01:47:38.586Z,71.43
2017-08-28T01:47:48.312Z,71.76
2017-08-28T01:47:58.044Z,71.46
2017-08-28T01:48:07.781Z,71.52
2017-08-28T01:48:17.524Z,71.36
2017-08-28T01:48:27.260Z,71.50
2017-08-28T01:48:36.989Z,71.64
2017-08-28T01:48:46.725Z,71.50
2017-08-28T01:48:56.468Z,71.40
2017-08-28T01:49:06.211Z,71.49
2017-08-28T01:49:15.950Z,71.10
2017-08-28T01:49:25.678Z,71.63
2017-08-28T01:49:41.633Z,71.58
2017-08-28T01:49:50.990Z,71.55
2017-08-28T01:50:00.760Z,71.62
2017-08-28T01:50:10.465Z,71.54
2017-08-28T01:50:20.202Z,71.53
2017-08-28T01:50:29.942Z,71.49
2017-08-28T01:50:39.685Z,71.43
2017-08-28T01:50:49.416Z,71.49
2017-08-28T01:50:59.164Z,71.55
2017-08-28T01:51:08.926Z,71.69
2017-08-28T01:51:37.831Z,71.33
2017-08-28T01:51:49.181Z,71.68
2017-08-28T01:51:58.917Z,71.35
2017-08-28T01:52:08.640Z,71.37
2017-08-28T01:52:18.388Z,71.50
2017-08-28T01:52:28.133Z,71.20
2017-08-28T01:52:37.909Z,71.60
2017-08-28T01:53:01.242Z,71.22
2017-08-28T01:53:10.401Z,71.43
2017-08-28T01:53:26.540Z,71.57
2017-08-28T01:53:45.886Z,71.39
2017-08-28T01:53:57.204Z,71.42
2017-08-28T01:54:13.363Z,71.08
2017-08-28T01:54:23.104Z,71.40
2017-08-28T01:54:36.028Z,71.36
2017-08-28T01:54:50.573Z,71.29
2017-08-28T01:55:03.496Z,71.30
2017-08-28T01:55:46.841Z,71.52
2017-08-28T01:55:58.194Z,70.96
2017-08-28T01:56:13.141Z,71.24
2017-08-28T01:56:21.881Z,71.43
2017-08-28T01:56:31.612Z,71.53
2017-08-28T01:57:04.914Z,71.57
2017-08-28T01:57:32.269Z,71.22
2017-08-28T01:57:42.006Z,71.71
2017-08-28T01:57:51.729Z,71.52
2017-08-28T01:58:01.473Z,71.86
2017-08-28T01:58:16.002Z,71.67
2017-08-28T01:58:33.753Z,71.70
2017-08-28T01:58:43.481Z,71.72
2017-08-28T01:58:53.229Z,71.75
2017-08-28T01:59:02.961Z,71.47
2017-08-28T01:59:22.310Z,72.05
2017-08-28T01:59:33.681Z,71.97
2017-08-28T01:59:48.172Z,71.74
2017-08-28T02:00:07.134Z,72.30
2017-08-28T02:00:21.477Z,71.66
2017-08-28T02:00:40.825Z,72.05
2017-08-28T02:00:50.556Z,72.18
2017-08-28T02:01:15.158Z,72.26
2017-08-28T02:01:23.857Z,72.03
2017-08-28T02:01:33.588Z,71.81
2017-08-28T02:01:49.746Z,72.17
2017-08-28T02:02:20.265Z,72.06
2017-08-28T02:02:33.209Z,72.31
2017-08-28T02:02:42.952Z,72.44
2017-08-28T02:02:52.697Z,71.77
2017-08-28T02:03:02.417Z,71.97
2017-08-28T02:03:18.565Z,72.23
2017-08-28T02:03:28.293Z,72.00
2017-08-28T02:03:38.029Z,71.98
2017-08-28T02:03:47.774Z,71.89
2017-08-28T02:03:57.515Z,72.21
2017-08-28T02:04:07.238Z,71.98
2017-08-28T02:04:16.989Z,72.00
2017-08-28T02:04:26.722Z,71.99
2017-08-28T02:04:36.465Z,71.97
2017-08-28T02:04:46.202Z,71.96
2017-08-28T02:04:55.944Z,72.03
2017-08-28T02:05:05.680Z,72.11
2017-08-28T02:05:15.428Z,71.66
2017-08-28T02:05:25.140Z,72.19
2017-08-28T02:05:40.105Z,72.27
2017-08-28T02:05:48.848Z,72.27
2017-08-28T02:05:58.616Z,71.92
2017-08-28T02:06:08.328Z,72.12
2017-08-28T02:06:18.136Z,72.17
2017-08-28T02:06:27.826Z,72.15
2017-08-28T02:06:37.533Z,72.12
2017-08-28T02:06:47.291Z,72.23
2017-08-28T02:06:57.023Z,72.24
2017-08-28T02:07:06.759Z,71.75
2017-08-28T02:07:16.518Z,72.31
2017-08-28T02:07:31.456Z,72.14
2017-08-28T02:07:40.205Z,72.31
2017-08-28T02:07:49.932Z,72.30
2017-08-28T02:08:04.876Z,71.86
2017-08-28T02:08:18.869Z,71.92
2017-08-28T02:08:27.609Z,72.32
2017-08-28T02:08:37.345Z,72.40
2017-08-28T02:08:47.090Z,72.30
2017-08-28T02:08:56.828Z,72.28
2017-08-28T02:09:06.560Z,72.45
2017-08-28T02:09:16.306Z,72.12
2017-08-28T02:09:26.044Z,72.39
2017-08-28T02:09:35.769Z,72.53
2017-08-28T02:09:45.507Z,71.99
2017-08-28T02:09:55.255Z,72.64
2017-08-28T02:10:04.989Z,71.85
2017-08-28T02:10:14.725Z,72.29
2017-08-28T02:10:24.461Z,72.44
2017-08-28T02:10:34.188Z,72.15
2017-08-28T02:10:43.944Z,72.43
2017-08-28T02:10:53.686Z,71.88
2017-08-28T02:11:03.413Z,71.69
2017-08-28T02:11:13.168Z,71.64
2017-08-28T02:11:22.993Z,71.70
2017-08-28T02:11:32.641Z,72.27
2017-08-28T02:11:47.556Z,72.25
2017-08-28T02:11:56.336Z,72.17
2017-08-28T02:12:11.296Z,71.73
2017-08-28T02:12:20.034Z,72.17
2017-08-28T02:12:29.777Z,72.06
2017-08-28T02:12:39.524Z,72.16
2017-08-28T02:12:49.252Z,72.29
2017-08-28T02:12:58.981Z,72.27
2017-08-28T02:13:08.728Z,72.28
2017-08-28T02:13:18.469Z,72.30
2017-08-28T02:13:28.201Z,71.83
2017-08-28T02:13:37.933Z,71.86
2017-08-28T02:13:47.687Z,71.99
2017-08-28T02:13:57.425Z,71.95
2017-08-28T02:14:09.517Z,71.88
2017-08-28T02:14:18.493Z,72.20
2017-08-28T02:14:28.225Z,72.42
2017-08-28T02:14:37.966Z,72.14
2017-08-28T02:14:47.706Z,72.12
2017-08-28T02:14:57.432Z,72.40
2017-08-28T02:15:15.000Z,72.34
2017-08-28T02:15:27.544Z,72.32
2017-08-28T02:15:42.086Z,72.43
2017-08-28T02:15:55.024Z,72.46
2017-08-28T02:16:12.568Z,71.99
2017-08-28T02:16:21.936Z,72.56
2017-08-28T02:16:31.677Z,72.34
2017-08-28T02:16:41.421Z,72.32
2017-08-28T02:16:51.149Z,72.37
2017-08-28T02:17:00.877Z,72.47
2017-08-28T02:17:10.612Z,72.20
2017-08-28T02:17:20.350Z,72.27
2017-08-28T02:17:30.121Z,72.29
2017-08-28T02:17:39.829Z,72.17
2017-08-28T02:17:57.216Z,72.66
2017-08-28T02:18:06.965Z,72.70
2017-08-28T02:18:16.719Z,72.60
2017-08-28T02:18:26.464Z,72.57
2017-08-28T02:18:36.161Z,72.61
2017-08-28T02:18:45.917Z,72.43
2017-08-28T02:19:14.868Z,72.92
2017-08-28T02:19:42.833Z,72.75
2017-08-28T02:19:53.625Z,72.83
2017-08-28T02:20:02.816Z,72.58
2017-08-28T02:20:12.536Z,72.75
2017-08-28T02:20:22.273Z,72.33
2017-08-28T02:20:32.008Z,72.42
2017-08-28T02:20:41.757Z,72.36
2017-08-28T02:20:51.480Z,72.66
2017-08-28T02:21:07.641Z,72.79
2017-08-28T02:21:17.372Z,72.40
2017-08-28T02:21:27.101Z,72.31
2017-08-28T02:21:36.867Z,72.91
2017-08-28T02:21:46.581Z,72.71
2017-08-28T02:21:56.331Z,72.56
2017-08-28T02:22:06.065Z,72.85
2017-08-28T02:22:15.798Z,72.68
2017-08-28T02:22:25.544Z,72.93
2017-08-28T02:22:35.269Z,72.52
2017-08-28T02:22:44.997Z,73.02
2017-08-28T02:22:54.749Z,72.60
2017-08-28T02:23:04.497Z,73.07
2017-08-28T02:23:14.229Z,72.82
2017-08-28T02:23:23.960Z,73.10
2017-08-28T02:23:38.920Z,73.02
2017-08-28T02:23:47.657Z,72.65
2017-08-28T02:23:57.405Z,73.05
2017-08-28T02:24:07.136Z,72.73
2017-08-28T02:24:16.881Z,72.62
2017-08-28T02:24:26.609Z,72.72
2017-08-28T02:24:36.362Z,73.52
2017-08-28T02:24:46.109Z,73.07
2017-08-28T02:25:02.245Z,72.97
2017-08-28T02:25:11.989Z,73.06
2017-08-28T02:25:21.707Z,72.70
2017-08-28T02:25:31.465Z,72.74
2017-08-28T02:25:41.188Z,73.26
2017-08-28T02:25:50.929Z,73.33
2017-08-28T02:26:00.659Z,73.03
2017-08-28T02:26:16.805Z,73.18
2017-08-28T02:26:36.160Z,73.12
2017-08-28T02:26:45.892Z,73.37
2017-08-28T02:26:55.620Z,73.10
2017-08-28T02:27:43.745Z,72.77
2017-08-28T02:27:59.888Z,72.99
2017-08-28T02:28:14.317Z,72.91
2017-08-28T02:28:23.595Z,73.23
2017-08-28T02:28:33.337Z,72.97
2017-08-28T02:28:43.064Z,72.71
2017-08-28T02:28:52.809Z,72.83
2017-08-28T02:29:02.545Z,72.60
2017-08-28T02:29:12.279Z,73.13
2017-08-28T02:29:26.812Z,73.10
2017-08-28T02:29:46.141Z,72.86
2017-08-28T02:30:10.296Z,73.19
2017-08-28T02:30:20.048Z,73.46
2017-08-28T02:30:48.131Z,73.01
2017-08-28T02:31:01.374Z,72.53
2017-08-28T02:31:21.785Z,73.22
2017-08-28T02:31:31.460Z,73.34
2017-08-28T02:31:42.777Z,73.49
2017-08-28T02:32:03.757Z,72.62
2017-08-28T02:32:15.087Z,73.06
2017-08-28T02:32:24.797Z,72.85
2017-08-28T02:32:37.746Z,73.23
2017-08-28T02:32:47.504Z,73.03
2017-08-28T02:32:57.220Z,73.16
2017-08-28T02:33:06.949Z,73.13
2017-08-28T02:33:16.692Z,73.06
2017-08-28T02:33:26.424Z,72.69
2017-08-28T02:33:36.161Z,73.13
2017-08-28T02:33:45.900Z,73.20
2017-08-28T02:33:55.626Z,72.80
2017-08-28T02:34:11.582Z,72.94
2017-08-28T02:34:20.943Z,73.19
2017-08-28T02:34:30.676Z,73.58
2017-08-28T02:34:40.416Z,73.64
2017-08-28T02:34:50.175Z,73.35
2017-08-28T02:34:59.893Z,73.19
2017-08-28T02:35:09.622Z,73.25
2017-08-28T02:35:19.359Z,72.82
2017-08-28T02:35:29.101Z,73.21
2017-08-28T02:35:44.061Z,73.07
2017-08-28T02:36:08.949Z,73.50
2017-08-28T02:36:18.686Z,73.08
2017-08-28T02:36:28.416Z,73.41
2017-08-28T02:36:38.165Z,73.67
2017-08-28T02:36:47.904Z,73.49
2017-08-28T02:37:08.894Z,73.30
2017-08-28T02:37:23.370Z,73.34
2017-08-28T02:37:33.109Z,73.33
2017-08-28T02:38:38.869Z,73.33
2017-08-28T02:38:53.687Z,73.07
2017-08-28T02:39:04.241Z,73.50
2017-08-28T02:39:21.758Z,73.19
2017-08-28T02:39:31.488Z,72.92
2017-08-28T02:39:41.234Z,73.24
2017-08-28T02:39:50.953Z,73.32
2017-08-28T02:40:12.304Z,72.77
2017-08-28T02:40:21.069Z,73.50
2017-08-28T02:40:30.787Z,72.79
2017-08-28T02:40:40.556Z,73.46
2017-08-28T02:40:50.286Z,73.31
2017-08-28T02:41:00.012Z,73.29
2017-08-28T02:41:09.755Z,73.17
2017-08-28T02:41:19.492Z,73.37
2017-08-28T02:41:35.645Z,73.40
2017-08-28T02:41:45.380Z,73.48
2017-08-28T02:41:55.121Z,73.20
2017-08-28T02:42:04.847Z,73.41
2017-08-28T02:42:14.607Z,73.46
2017-08-28T02:42:24.322Z,73.16
2017-08-28T02:42:43.653Z,73.40
2017-08-28T02:42:55.007Z,73.33
2017-08-28T02:43:05.037Z,73.21
2017-08-28T02:43:14.469Z,73.29
2017-08-28T02:43:24.213Z,73.30
2017-08-28T02:43:33.945Z,73.33
2017-08-28T02:43:48.937Z,73.59
2017-08-28T02:43:57.651Z,73.31
2017-08-28T02:44:07.385Z,73.31
2017-08-28T02:44:17.128Z,73.16
2017-08-28T02:44:26.893Z,73.51
2017-08-28T02:44:36.723Z,73.36
2017-08-28T02:44:46.349Z,73.39
2017-08-28T02:44:56.085Z,73.36
2017-08-28T02:45:05.826Z,73.36
2017-08-28T02:45:15.560Z,73.43
2017-08-28T02:45:25.297Z,73.39
2017-08-28T02:45:35.039Z,73.49
2017-08-28T02:45:44.784Z,73.49
2017-08-28T02:45:54.524Z,73.41
2017-08-28T02:46:04.253Z,73.42
2017-08-28T02:46:13.985Z,73.38
2017-08-28T02:46:23.746Z,73.57
2017-08-28T02:46:33.452Z,73.41
2017-08-28T02:46:43.215Z,73.29
2017-08-28T02:46:52.941Z,73.54
2017-08-28T02:47:02.701Z,73.36
2017-08-28T02:47:12.459Z,73.28
2017-08-28T02:47:27.381Z,73.00
2017-08-28T02:47:36.117Z,72.94
2017-08-28T02:47:45.873Z,73.28
2017-08-28T02:47:55.601Z,73.42
2017-08-28T02:48:05.362Z,73.35
2017-08-28T02:48:15.073Z,73.54
2017-08-28T02:48:24.809Z,73.36
2017-08-28T02:48:34.561Z,73.32
2017-08-28T02:48:49.509Z,73.33
2017-08-28T02:49:06.250Z,73.02
2017-08-28T02:49:15.986Z,73.12
2017-08-28T02:49:25.717Z,73.18
2017-08-28T02:49:35.466Z,73.76
2017-08-28T02:49:45.196Z,73.46
2017-08-28T02:49:54.968Z,73.10
2017-08-28T02:50:04.682Z,73.26
2017-08-28T02:50:14.416Z,72.69
2017-08-28T02:50:24.437Z,73.00
2017-08-28T02:50:33.900Z,73.17
2017-08-28T02:50:43.661Z,73.18
2017-08-28T02:50:58.575Z,73.30
2017-08-28T02:51:07.337Z,72.71
2017-08-28T02:51:17.072Z,73.02
2017-08-28T02:51:26.805Z,73.39
2017-08-28T02:51:36.557Z,73.37
2017-08-28T02:51:51.498Z,73.22
2017-08-28T02:52:00.254Z,73.19
2017-08-28T02:52:10.009Z,73.37
2017-08-28T02:52:19.748Z,73.52
2017-08-28T02:52:29.469Z,73.09
2017-08-28T02:53:24.025Z,73.30
2017-08-28T02:53:33.739Z,73.27
2017-08-28T02:53:46.696Z,73.25
2017-08-28T02:53:56.424Z,73.20
2017-08-28T02:54:06.177Z,73.36
2017-08-28T02:54:17.486Z,73.54
2017-08-28T02:54:33.630Z,73.10
2017-08-28T02:54:59.360Z,72.95
2017-08-28T02:55:14.327Z,73.20
2017-08-28T02:55:23.065Z,73.22
2017-08-28T02:55:32.809Z,73.20
2017-08-28T02:55:56.968Z,73.21
2017-08-28T02:56:08.270Z,73.13
2017-08-28T02:56:18.013Z,73.12
2017-08-28T02:57:25.380Z,72.97
2017-08-28T02:57:41.524Z,72.97
2017-08-28T02:57:51.238Z,72.83
2017-08-28T02:58:00.976Z,72.69
2017-08-28T02:58:10.706Z,72.81
2017-08-28T02:58:20.454Z,72.63
2017-08-28T02:58:43.440Z,72.61
2017-08-28T02:59:09.184Z,72.93
2017-08-28T02:59:18.926Z,72.79
2017-08-28T02:59:28.663Z,72.75
2017-08-28T02:59:40.041Z,72.97
2017-08-28T02:59:49.741Z,72.36
2017-08-28T02:59:59.473Z,72.76
2017-08-28T03:00:15.645Z,72.73
2017-08-28T03:00:25.368Z,72.50
2017-08-28T03:00:35.100Z,73.01
2017-08-28T03:00:44.836Z,72.64
2017-08-28T03:00:58.268Z,72.83
2017-08-28T03:01:06.949Z,72.66
2017-08-28T03:01:16.677Z,72.71
2017-08-28T03:01:26.408Z,72.99
2017-08-28T03:01:36.146Z,72.55
2017-08-28T03:02:13.073Z,72.67
2017-08-28T03:02:24.444Z,72.87
2017-08-28T03:03:30.195Z,72.63
2017-08-28T03:03:52.732Z,72.69
2017-08-28T03:04:28.451Z,72.73
2017-08-28T03:04:38.828Z,72.42
2017-08-28T03:04:48.553Z,72.61
2017-08-28T03:04:58.276Z,72.37
2017-08-28T03:05:08.013Z,72.88
2017-08-28T03:05:17.768Z,72.30
2017-08-28T03:05:29.097Z,72.49
2017-08-28T03:05:40.444Z,72.48
2017-08-28T03:05:53.385Z,72.48
2017-08-28T03:06:03.117Z,72.88
2017-08-28T03:06:12.832Z,72.46
2017-08-28T03:06:24.174Z,72.71
2017-08-28T03:06:33.909Z,72.98
2017-08-28T03:06:43.649Z,73.01
2017-08-28T03:06:56.635Z,72.67
2017-08-28T03:07:06.332Z,72.30
2017-08-28T03:07:16.065Z,72.58
2017-08-28T03:07:25.806Z,72.46
2017-08-28T03:07:35.556Z,72.58
2017-08-28T03:07:45.296Z,72.18
2017-08-28T03:07:55.033Z,72.82
2017-08-28T03:08:09.962Z,72.60
2017-08-28T03:08:18.729Z,72.48
2017-08-28T03:08:28.461Z,72.25
2017-08-28T03:08:38.193Z,72.83
2017-08-28T03:08:47.944Z,72.75
2017-08-28T03:09:02.890Z,72.89
2017-08-28T03:09:16.858Z,72.20
2017-08-28T03:09:25.612Z,72.48
2017-08-28T03:09:35.343Z,73.05
2017-08-28T03:10:13.898Z,72.65
2017-08-28T03:10:23.609Z,72.52
2017-08-28T03:10:33.352Z,72.75
2017-08-28T03:10:51.109Z,72.79
2017-08-28T03:11:00.849Z,72.70
2017-08-28T03:11:10.577Z,72.47
2017-08-28T03:11:28.302Z,72.76
2017-08-28T03:11:38.045Z,72.32
2017-08-28T03:11:47.797Z,72.74
2017-08-28T03:12:05.530Z,72.30
2017-08-28T03:12:22.078Z,72.69
2017-08-28T03:12:30.837Z,72.87
2017-08-28T03:12:56.592Z,72.67
2017-08-28T03:13:20.721Z,72.29
2017-08-28T03:13:30.440Z,72.30
2017-08-28T03:13:41.795Z,72.22
2017-08-28T03:13:56.304Z,72.64
2017-08-28T03:14:06.060Z,72.70
2017-08-28T03:14:15.808Z,72.49
2017-08-28T03:14:31.916Z,72.78
2017-08-28T03:14:41.672Z,72.81
2017-08-28T03:15:05.805Z,72.95
2017-08-28T03:15:15.560Z,72.58
2017-08-28T03:15:25.265Z,72.21
2017-08-28T03:15:35.017Z,72.87
2017-08-28T03:15:44.744Z,72.22
2017-08-28T03:15:54.501Z,72.31
2017-08-28T03:16:04.229Z,72.32
2017-08-28T03:16:13.964Z,72.74
2017-08-28T03:16:23.709Z,72.90
2017-08-28T03:16:38.145Z,73.07
2017-08-28T03:16:47.408Z,72.86
2017-08-28T03:16:57.152Z,72.64
2017-08-28T03:17:06.873Z,72.95
2017-08-28T03:17:16.628Z,73.04
2017-08-28T03:17:31.597Z,73.18
2017-08-28T03:17:40.338Z,72.88
2017-08-28T03:17:50.193Z,73.05
2017-08-28T03:17:59.843Z,73.04
2017-08-28T03:18:09.541Z,72.72
2017-08-28T03:18:19.289Z,72.69
2017-08-28T03:18:29.053Z,72.79
2017-08-28T03:18:55.178Z,72.66
2017-08-28T03:19:03.926Z,72.91
2017-08-28T03:19:13.653Z,72.61
2017-08-28T03:19:23.401Z,72.98
2017-08-28T03:19:33.144Z,72.88
2017-08-28T03:19:42.872Z,72.81
2017-08-28T03:19:52.627Z,72.53
2017-08-28T03:20:02.336Z,72.98
2017-08-28T03:20:12.088Z,72.82
2017-08-28T03:20:21.834Z,73.03
2017-08-28T03:20:31.565Z,72.63
2017-08-28T03:20:41.369Z,72.77
2017-08-28T03:20:56.244Z,73.17
2017-08-28T03:21:05.009Z,73.15
2017-08-28T03:21:14.752Z,73.02
2017-08-28T03:21:24.520Z,73.19
2017-08-28T03:21:45.428Z,73.13
2017-08-28T03:21:55.172Z,73.09
2017-08-28T03:22:04.929Z,73.18
2017-08-28T03:22:14.660Z,73.19
2017-08-28T03:22:29.609Z,73.56
2017-08-28T03:22:38.341Z,72.59
2017-08-28T03:22:48.073Z,73.19
2017-08-28T03:22:57.832Z,73.19
2017-08-28T03:23:07.602Z,73.17
2017-08-28T03:23:17.288Z,73.29
2017-08-28T03:23:41.430Z,73.41
2017-08-28T03:23:51.170Z,73.11
2017-08-28T03:24:04.100Z,73.31
2017-08-28T03:24:13.843Z,73.13
2017-08-28T03:24:23.589Z,73.50
2017-08-28T03:24:33.364Z,73.14
2017-08-28T03:24:43.177Z,72.95
2017-08-28T03:24:52.789Z,72.96
2017-08-28T03:25:31.740Z,73.19
2017-08-28T03:25:40.517Z,73.58
2017-08-28T03:25:50.239Z,73.75
2017-08-28T03:26:06.199Z,73.48
2017-08-28T03:26:20.751Z,73.21
2017-08-28T03:26:29.505Z,73.30
2017-08-28T03:26:39.274Z,73.46
2017-08-28T03:26:48.988Z,73.21
2017-08-28T03:26:58.735Z,73.26
2017-08-28T03:27:08.478Z,73.75
2017-08-28T03:27:19.817Z,73.61
2017-08-28T03:27:32.745Z,73.24
2017-08-28T03:28:36.900Z,73.49
2017-08-28T03:28:56.622Z,73.58
2017-08-28T03:29:26.183Z,74.04
2017-08-28T03:29:45.925Z,73.91
2017-08-28T03:30:02.690Z,73.71
2017-08-28T03:30:12.425Z,73.98
2017-08-28T03:30:22.161Z,73.81
2017-08-28T03:30:31.913Z,73.98
2017-08-28T03:30:41.759Z,74.02
2017-08-28T03:30:51.397Z,73.83
2017-08-28T03:31:01.118Z,74.10
2017-08-28T03:31:10.861Z,74.03
2017-08-28T03:31:20.593Z,73.66
2017-08-28T03:31:39.749Z,73.71
2017-08-28T03:31:49.120Z,73.48
2017-08-28T03:32:09.140Z,73.57
2017-08-28T03:32:29.490Z,73.68
2017-08-28T03:32:48.819Z,73.42
2017-08-28T03:32:58.362Z,73.68
2017-08-28T03:33:11.285Z,74.09
2017-08-28T03:33:20.472Z,73.48
2017-08-28T03:33:30.222Z,73.86
2017-08-28T03:33:39.921Z,73.80
2017-08-28T03:33:49.665Z,74.09
2017-08-28T03:34:04.696Z,73.79
2017-08-28T03:34:13.367Z,73.62
2017-08-28T03:34:23.084Z,73.56
2017-08-28T03:34:32.834Z,74.27
2017-08-28T03:34:42.569Z,73.80
2017-08-28T03:34:52.321Z,74.27
2017-08-28T03:35:02.058Z,74.27
2017-08-28T03:35:11.781Z,74.07
2017-08-28T03:35:23.139Z,74.21
2017-08-28T03:35:43.180Z,73.68
2017-08-28T03:35:56.428Z,73.82
2017-08-28T03:36:07.188Z,74.07
2017-08-28T03:36:16.917Z,74.00
2017-08-28T03:36:28.276Z,74.33
2017-08-28T03:36:48.253Z,74.26
2017-08-28T03:37:02.583Z,73.97
2017-08-28T03:37:16.056Z,74.14
2017-08-28T03:37:27.936Z,74.00
2017-08-28T03:37:37.720Z,74.02
2017-08-28T03:37:47.384Z,73.81
2017-08-28T03:37:57.122Z,74.48
2017-08-28T03:38:06.869Z,74.17
2017-08-28T03:38:16.612Z,73.88
2017-08-28T03:38:26.372Z,73.96
2017-08-28T03:38:36.077Z,74.21
2017-08-28T03:38:56.110Z,73.97
2017-08-28T03:39:09.418Z,74.22
2017-08-28T03:39:29.020Z,74.47
2017-08-28T03:39:49.101Z,74.47
2017-08-28T03:39:59.576Z,74.31
2017-08-28T03:40:09.011Z,74.20
2017-08-28T03:40:18.771Z,74.31
2017-08-28T03:40:30.117Z,74.34
2017-08-28T03:40:39.837Z,74.38
2017-08-28T03:40:49.573Z,74.03
2017-08-28T03:40:59.300Z,74.43
2017-08-28T03:41:09.050Z,74.17
2017-08-28T03:41:18.775Z,74.31
2017-08-28T03:41:28.536Z,74.26
2017-08-28T03:41:48.465Z,74.40
2017-08-28T03:41:58.907Z,74.53
2017-08-28T03:42:08.368Z,74.54
2017-08-28T03:42:18.090Z,74.71
2017-08-28T03:42:38.044Z,74.26
2017-08-28T03:42:48.486Z,74.50
2017-08-28T03:42:57.940Z,74.51
2017-08-28T03:43:07.666Z,74.52
2017-08-28T03:43:17.421Z,74.58
2017-08-28T03:43:27.293Z,74.51
2017-08-28T03:43:36.905Z,74.65
2017-08-28T03:43:46.654Z,74.53
2017-08-28T03:43:56.380Z,74.88
2017-08-28T03:44:06.113Z,74.62
2017-08-28T03:44:22.267Z,74.62
2017-08-28T03:44:33.593Z,74.48
2017-08-28T03:44:43.330Z,74.53
2017-08-28T03:45:15.454Z,74.46
2017-08-28T03:45:25.201Z,74.59
2017-08-28T03:45:34.953Z,74.58
2017-08-28T03:45:44.685Z,74.45
2017-08-28T03:45:54.421Z,74.48
2017-08-28T03:46:04.147Z,74.38
2017-08-28T03:46:19.097Z,75.02
2017-08-28T03:46:27.854Z,74.69
2017-08-28T03:46:37.581Z,74.91
2017-08-28T03:46:54.529Z,74.47
2017-08-28T03:47:04.482Z,74.62
2017-08-28T03:47:14.229Z,74.34
2017-08-28T03:47:23.981Z,74.58
2017-08-28T03:47:33.716Z,74.81
2017-08-28T03:47:43.456Z,74.76
2017-08-28T03:47:53.182Z,74.55
2017-08-28T03:48:08.126Z,74.89
2017-08-28T03:48:16.878Z,74.14
2017-08-28T03:48:26.640Z,74.53
2017-08-28T03:48:36.354Z,74.48
2017-08-28T03:48:51.313Z,74.58
2017-08-28T03:49:00.057Z,74.90
2017-08-28T03:49:09.808Z,74.86
2017-08-28T03:49:19.600Z,74.89
2017-08-28T03:49:29.279Z,74.54
2017-08-28T03:49:39.139Z,74.90
2017-08-28T03:49:58.760Z,74.59
2017-08-28T03:50:07.521Z,75.02
2017-08-28T03:50:17.252Z,74.94
2017-08-28T03:50:28.605Z,74.48
2017-08-28T03:50:43.562Z,74.59
2017-08-28T03:50:52.309Z,74.53
2017-08-28T03:51:02.028Z,74.60
2017-08-28T03:51:14.974Z,74.68
2017-08-28T03:51:58.315Z,74.45
2017-08-28T03:53:04.444Z,74.42
2017-08-28T03:53:16.845Z,74.55
2017-08-28T03:53:31.857Z,74.52
2017-08-28T03:53:40.761Z,74.52
2017-08-28T03:53:50.301Z,74.42
2017-08-28T03:54:00.053Z,74.36
2017-08-28T03:54:09.781Z,74.81
2017-08-28T03:54:24.313Z,74.42
2017-08-28T03:54:34.050Z,74.35
2017-08-28T03:55:01.397Z,74.44
2017-08-28T03:55:15.933Z,74.61
2017-08-28T03:55:25.664Z,74.52
2017-08-28T03:56:09.017Z,74.37
2017-08-28T03:56:24.021Z,74.59
2017-08-28T03:56:34.427Z,74.65
2017-08-28T03:56:44.064Z,74.29
2017-08-28T03:56:53.793Z,74.27
2017-08-28T03:57:11.536Z,74.50
2017-08-28T03:57:26.481Z,74.23
2017-08-28T03:57:45.222Z,74.60
2017-08-28T03:57:57.213Z,74.39
2017-08-28T03:58:07.176Z,74.42
2017-08-28T03:58:26.864Z,74.71
2017-08-28T03:58:37.330Z,74.48
2017-08-28T03:58:46.765Z,74.49
2017-08-28T03:58:56.521Z,74.67
2017-08-28T03:59:06.253Z,74.38
2017-08-28T03:59:15.977Z,74.37
2017-08-28T03:59:30.934Z,74.62
2017-08-28T03:59:39.688Z,74.70
2017-08-28T04:00:01.838Z,74.72
2017-08-28T04:00:11.400Z,74.73
2017-08-28T04:00:21.128Z,74.39
2017-08-28T04:01:03.269Z,74.66
2017-08-28T04:01:31.873Z,74.68
2017-08-28T04:02:10.989Z,74.59
2017-08-28T04:02:33.362Z,74.78
2017-08-28T04:02:47.902Z,74.79
2017-08-28T04:02:57.624Z,74.38
2017-08-28T04:03:07.340Z,74.54
2017-08-28T04:03:17.093Z,74.68
2017-08-28T04:04:03.649Z,74.50
2017-08-28T04:04:19.787Z,74.41
2017-08-28T04:04:29.505Z,74.43
2017-08-28T04:04:40.905Z,74.52
2017-08-28T04:04:56.976Z,74.65
2017-08-28T04:05:06.724Z,74.42
2017-08-28T04:05:16.472Z,74.39
2017-08-28T04:05:31.404Z,74.62
2017-08-28T04:05:52.549Z,74.74
2017-08-28T04:06:02.124Z,74.29
2017-08-28T04:06:11.863Z,74.42
2017-08-28T04:06:21.637Z,74.27
2017-08-28T04:06:31.384Z,74.43
2017-08-28T04:06:41.162Z,74.87
2017-08-28T04:06:50.812Z,74.33
2017-08-28T04:07:00.741Z,74.34
2017-08-28T04:07:20.488Z,74.60
2017-08-28T04:07:30.692Z,74.45
2017-08-28T04:08:17.372Z,74.52
2017-08-28T04:08:33.965Z,74.53
2017-08-28T04:08:58.025Z,74.74
2017-08-28T04:09:07.310Z,74.63
2017-08-28T04:09:22.197Z,74.35
2017-08-28T04:09:32.650Z,74.33
2017-08-28T04:09:56.690Z,74.67
2017-08-28T04:10:12.831Z,74.21
2017-08-28T04:10:22.587Z,74.34
2017-08-28T04:11:06.131Z,74.36
2017-08-28T04:11:24.993Z,74.22